Het weer levert geen direct gevaar op.    Er zijn geen waarschuwingen afgegeven.








webcam  webcam


webcam 2   webcam 2


Onweer radar Meer informatie blitzortung!


Regen radar Meer informatie rain snow radar


Bezoek onze andere website:

Template documentation
and downloads

And another site

weerstation wsnoordbergum

weerstationlembeke



METAR rapporten vliegvelden

   
EHAM - Amsterdam
Gewijzigd: 21-05-2019 09:25
Bewolking  
Bewolking  
   Wind: NW 27.8 km/h
Wind: NW 27.8 km/h
Temperatuur: 12°C
Dauwpunt: 11°C
Vochtigheid: 94%
Barometer: 1013 hPa
Bewolking: Bewolking
Zicht: 8 km
Bewolking: Grotendeels bewolkt 400 ft,
Bewolking 500 ft
EHAM 210725Z 32015KT 290V350 8000 BKN004 OVC005 12/11 Q1013 BECMG OVC005 TEMPO 7000
EHRD - Rotterdam
Gewijzigd: 21-05-2019 09:25
Bewolking  
Bewolking  
   Wind: NNW 18.5 km/h
Wind: NNW 18.5 km/h
Temperatuur: 11°C
Dauwpunt: 10°C
Vochtigheid: 94%
Barometer: 1014 hPa
Bewolking: Bewolking
Zicht: meer dan 10 km
Bewolking: Grotendeels bewolkt 500 ft,
Bewolking 700 ft
EHRD 210725Z AUTO 34010KT 280V020 9999 BKN005 OVC007 11/10 Q1014 NOSIG
EHLW - Leeuwarden
Gewijzigd: 21-05-2019 09:25
Nevel, Bewolking  
Nevel, Bewolking  
   Wind: NNW 20.4 km/h
Wind: NNW 20.4 km/h
Temperatuur: 12°C
Dauwpunt: 12°C
Vochtigheid: 100%
Barometer: 1011 hPa
Bewolking: Bewolking
Zicht: 6 km
Bewolking: Grotendeels bewolkt 200 ft,
Bewolking 300 ft
EHLW 210725Z AUTO 33011KT 280V010 6000 BR BKN002 OVC003 12/12 Q1011 AMB 33011KT 4000 BR BKN003 TEMPO 2000 BR BKN002
EHGG - Groningen
Gewijzigd: 21-05-2019 09:25
Bewolking  
Bewolking  
   Wind: NNW 22.2 km/h
Wind: NNW 22.2 km/h
Temperatuur: 12°C
Dauwpunt: 11°C
Vochtigheid: 94%
Barometer: 1010 hPa
Bewolking: Bewolking
Zicht: meer dan 10 km
Bewolking: Bewolking 300 ft
EHGG 210725Z AUTO 33012KT 300V360 9999 OVC003 12/11 Q1010 NOSIG
  

Script ontwikkeld door  Saratoga-weather.org Aangepast voor de template door  Weerstation Leuven

U vindt ons ook hier:

Het Weer Aktueel

European Weather Network

WeatherCloud

Weather Underground

AWEKAS

HAMweather, WeatherForYou, PWS Weather

Apparatuur in gebruik:

Weerstation
Davis VP2

Weerprogramma
Meteobridge

Weercomputer
Asus WL -330N3G

Webleverancier
Hostnet

Davis VP2

Meteobridge

Asus WL -330N3G

Hostnet